ENOV/HOV METAR and TAF weather

Enter ICAO airport designator
Station Type Date Time Source
ENOV METAR 2018/01/22 21:50 UTC NOAA

ENOV 222150Z VRB03KT 8000 4000E -SN FEW020 SCT025 BKN030 00/M01 Q1005 RMK WIND 2175FT 12026KT


Station Type Date Time Source
ENOV Decoded METAR 2018/01/22 21:50 UTC NOAA

Orsta-Volda / Hovden, Norway (ENOV) 62-11N 006-04E 74M
Jan 22, 2018 - 04:50 PM EST / 2018.01.22 2150 UTC
Wind: Variable at 3 MPH (3 KT):0
Visibility: 4 mile(s):0
Sky conditions: mostly cloudy
Weather: light snow
Temperature: 32 F (0 C)
Dew Point: 30 F (-1 C)
Relative Humidity: 92%
Pressure (altimeter): 29.68 in. Hg (1005 hPa)
ob: ENOV 222150Z VRB03KT 8000 4000E -SN FEW020 SCT025 BKN030 00/M01 Q1005 RMK WIND 2175FT 12026KT
cycle: 22

Station Type Date Time Source
ENOV TAF UTC NOAA

Error!


Example: see airport list